createdAt,value
2023-02-02T00:01:21.053Z,8.04
2023-02-02T00:03:50.855Z,8.05
2023-02-02T00:06:21.654Z,8.05
2023-02-02T00:08:49.327Z,8.06
2023-02-02T00:11:17.430Z,8.08
2023-02-02T00:13:44.903Z,8.09
2023-02-02T00:16:26.766Z,8.11
2023-02-02T00:18:54.901Z,8.12
2023-02-02T00:21:21.700Z,8.12
2023-02-02T00:23:48.928Z,8.12
2023-02-02T00:26:16.414Z,8.14
2023-02-02T00:28:43.503Z,8.15
2023-02-02T00:31:10.623Z,8.18
2023-02-02T00:33:37.436Z,8.19
2023-02-02T00:36:05.130Z,8.21
2023-02-02T00:38:32.439Z,8.23
2023-02-02T00:40:59.042Z,8.25
2023-02-02T00:43:25.736Z,8.26
2023-02-02T00:45:52.486Z,8.28
2023-02-02T00:48:19.232Z,8.29
2023-02-02T00:50:45.918Z,8.30
2023-02-02T00:53:12.565Z,8.31
2023-02-02T00:55:39.474Z,8.33
2023-02-02T00:58:06.131Z,8.34
2023-02-02T01:00:32.777Z,8.33
2023-02-02T01:03:04.464Z,8.33
2023-02-02T01:05:32.397Z,8.36
2023-02-02T01:07:59.112Z,8.37
2023-02-02T01:10:26.203Z,8.37
2023-02-02T01:12:52.955Z,8.39
2023-02-02T01:15:19.913Z,8.40
2023-02-02T01:17:46.658Z,8.40
2023-02-02T01:20:19.601Z,8.41
2023-02-02T01:22:46.684Z,8.41
2023-02-02T01:25:14.026Z,8.43
2023-02-02T01:27:40.897Z,8.43
2023-02-02T01:30:08.508Z,8.45
2023-02-02T01:32:35.192Z,8.46
2023-02-02T01:35:01.973Z,8.46
2023-02-02T01:37:28.763Z,8.47
2023-02-02T01:39:55.386Z,8.48
2023-02-02T01:42:23.391Z,8.48
2023-02-02T01:44:53.073Z,8.48
2023-02-02T01:47:23.854Z,8.49
2023-02-02T01:49:51.384Z,8.49
2023-02-02T01:52:24.294Z,8.50
2023-02-02T01:54:56.226Z,8.48
2023-02-02T01:57:35.171Z,8.49
2023-02-02T02:00:04.997Z,8.50
2023-02-02T02:02:33.001Z,8.50
2023-02-02T02:05:02.974Z,8.50
2023-02-02T02:07:29.779Z,8.52
2023-02-02T02:09:56.487Z,8.51
2023-02-02T02:12:23.285Z,8.52
2023-02-02T02:15:10.206Z,8.54
2023-02-02T02:17:44.786Z,8.54
2023-02-02T02:20:36.076Z,8.54
2023-02-02T02:23:21.685Z,8.55
2023-02-02T02:26:34.516Z,8.54
2023-02-02T02:29:25.403Z,8.54
2023-02-02T02:32:19.525Z,8.53
2023-02-02T02:34:54.083Z,8.54
2023-02-02T02:37:45.501Z,8.52
2023-02-02T02:40:12.090Z,8.53
2023-02-02T02:42:45.399Z,8.53
2023-02-02T02:45:14.216Z,8.52
2023-02-02T02:47:42.356Z,8.51
2023-02-02T02:50:09.797Z,8.52
2023-02-02T02:52:37.511Z,8.52
2023-02-02T02:55:07.015Z,8.51
2023-02-02T02:58:21.411Z,8.52
2023-02-02T03:01:01.372Z,8.52
2023-02-02T03:03:41.986Z,8.52
2023-02-02T03:06:36.190Z,8.52
2023-02-02T03:09:13.208Z,8.53
2023-02-02T03:11:41.113Z,8.53
2023-02-02T03:14:09.794Z,8.52
2023-02-02T03:16:37.569Z,8.53
2023-02-02T03:19:05.420Z,8.52
2023-02-02T03:21:33.346Z,8.51
2023-02-02T03:24:00.527Z,8.52
2023-02-02T03:26:27.576Z,8.53
2023-02-02T03:28:57.307Z,8.53
2023-02-02T03:31:27.118Z,8.55
2023-02-02T03:33:54.843Z,8.54
2023-02-02T03:36:21.570Z,8.53
2023-02-02T03:38:48.344Z,8.53
2023-02-02T03:41:15.289Z,8.51
2023-02-02T03:43:41.944Z,8.50
2023-02-02T03:46:08.764Z,8.47
2023-02-02T03:48:39.354Z,8.48
2023-02-02T03:51:14.361Z,8.47
2023-02-02T03:53:44.496Z,8.46
2023-02-02T03:56:11.590Z,8.45
2023-02-02T03:58:38.292Z,8.46
2023-02-02T04:01:07.646Z,8.46
2023-02-02T04:03:34.548Z,8.46
2023-02-02T04:06:01.585Z,8.46
2023-02-02T04:08:28.582Z,8.46
2023-02-02T04:10:55.259Z,8.44
2023-02-02T04:13:22.043Z,8.45
2023-02-02T04:15:48.989Z,8.46
2023-02-02T04:18:15.682Z,8.47
2023-02-02T04:20:42.342Z,8.47
2023-02-02T04:23:09.079Z,8.49
2023-02-02T04:25:35.728Z,8.50
2023-02-02T04:28:02.480Z,8.51
2023-02-02T04:30:29.167Z,8.53
2023-02-02T04:32:55.985Z,8.54
2023-02-02T04:35:22.883Z,8.55
2023-02-02T04:37:49.810Z,8.55
2023-02-02T04:40:16.645Z,8.55
2023-02-02T04:42:45.343Z,8.53
2023-02-02T04:45:13.290Z,8.53
2023-02-02T04:47:40.195Z,8.51
2023-02-02T04:50:07.561Z,8.52
2023-02-02T04:52:35.257Z,8.49
2023-02-02T04:55:01.907Z,8.49
2023-02-02T04:57:28.599Z,8.49
2023-02-02T04:59:55.304Z,8.49
2023-02-02T05:02:22.161Z,8.50
2023-02-02T05:04:48.933Z,8.50
2023-02-02T05:07:15.703Z,8.52
2023-02-02T05:09:42.394Z,8.52
2023-02-02T05:12:09.100Z,8.53
2023-02-02T05:14:35.793Z,8.53
2023-02-02T05:17:02.495Z,8.54
2023-02-02T05:19:29.095Z,8.54
2023-02-02T05:21:55.904Z,8.53
2023-02-02T05:24:22.594Z,8.53
2023-02-02T05:26:49.286Z,8.51
2023-02-02T05:29:16.003Z,8.48
2023-02-02T05:31:42.702Z,8.48
2023-02-02T05:34:11.647Z,8.48
2023-02-02T05:36:38.412Z,8.48
2023-02-02T05:39:05.693Z,8.48
2023-02-02T05:41:32.618Z,8.47
2023-02-02T05:44:00.159Z,8.48
2023-02-02T05:46:26.892Z,8.49
2023-02-02T05:48:53.579Z,8.51
2023-02-02T05:51:23.925Z,8.51
2023-02-02T05:53:50.693Z,8.51
2023-02-02T05:56:17.513Z,8.53
2023-02-02T05:59:03.450Z,8.54
2023-02-02T06:01:30.267Z,8.53
2023-02-02T06:03:57.032Z,8.54
2023-02-02T06:06:23.763Z,8.53
2023-02-02T06:08:50.509Z,8.52
2023-02-02T06:11:19.080Z,8.50
2023-02-02T06:13:46.344Z,8.48
2023-02-02T06:16:13.134Z,8.46
2023-02-02T06:18:40.053Z,8.44
2023-02-02T06:21:07.396Z,8.45
2023-02-02T06:23:34.976Z,8.45
2023-02-02T06:26:03.700Z,8.46
2023-02-02T06:28:32.857Z,8.47
2023-02-02T06:31:07.348Z,8.49
2023-02-02T06:33:34.378Z,8.47
2023-02-02T06:36:03.139Z,8.47
2023-02-02T06:38:29.909Z,8.48
2023-02-02T06:41:00.006Z,8.50
2023-02-02T06:43:29.140Z,8.50
2023-02-02T06:45:57.901Z,8.47
2023-02-02T06:48:25.570Z,8.45
2023-02-02T06:50:53.273Z,8.41
2023-02-02T06:53:23.277Z,8.39
2023-02-02T06:55:58.332Z,8.37
2023-02-02T06:58:25.336Z,8.36
2023-02-02T07:00:52.266Z,8.33
2023-02-02T07:03:21.447Z,8.33
2023-02-02T07:05:51.263Z,8.34
2023-02-02T07:08:17.945Z,8.33
2023-02-02T07:11:13.104Z,8.32
2023-02-02T07:13:31.463Z,8.32
2023-02-02T07:15:58.405Z,8.28
2023-02-02T07:18:25.264Z,8.26
2023-02-02T07:20:51.934Z,8.25
2023-02-02T07:23:18.637Z,8.23
2023-02-02T07:25:45.279Z,8.23
2023-02-02T07:28:11.994Z,8.20
2023-02-02T07:30:38.627Z,8.17
2023-02-02T07:33:05.254Z,8.19
2023-02-02T07:35:31.948Z,8.19
2023-02-02T07:37:58.648Z,8.17
2023-02-02T07:40:25.876Z,8.19
2023-02-02T07:42:52.547Z,8.18
2023-02-02T07:45:27.750Z,8.18
2023-02-02T07:48:02.852Z,8.19
2023-02-02T07:50:31.436Z,8.21
2023-02-02T07:53:00.649Z,8.24
2023-02-02T07:55:27.457Z,8.26
2023-02-02T07:57:55.557Z,8.27
2023-02-02T08:00:23.013Z,8.25
2023-02-02T08:02:50.156Z,8.24
2023-02-02T08:05:17.918Z,8.20
2023-02-02T08:07:48.397Z,8.19
2023-02-02T08:10:15.146Z,8.19
2023-02-02T08:12:41.826Z,8.19
2023-02-02T08:15:09.103Z,8.20
2023-02-02T08:17:35.826Z,8.18
2023-02-02T08:20:02.508Z,8.21
2023-02-02T08:22:29.117Z,8.22
2023-02-02T08:24:55.808Z,8.23
2023-02-02T08:27:22.483Z,8.23
2023-02-02T08:29:49.104Z,8.20
2023-02-02T08:32:15.773Z,8.20
2023-02-02T08:34:43.117Z,8.21
2023-02-02T08:37:09.776Z,8.23
2023-02-02T08:39:36.468Z,8.25
2023-02-02T08:42:03.251Z,8.27
2023-02-02T08:45:59.838Z,8.32
2023-02-02T08:47:16.538Z,8.36
2023-02-02T08:49:45.005Z,8.41
2023-02-02T08:52:11.846Z,8.44
2023-02-02T08:54:38.458Z,8.49
2023-02-02T08:57:05.068Z,8.52
2023-02-02T08:59:31.675Z,8.55
2023-02-02T09:01:58.427Z,8.56
2023-02-02T09:04:25.182Z,8.59
2023-02-02T09:06:51.788Z,8.62
2023-02-02T09:09:18.478Z,8.63
2023-02-02T09:11:45.165Z,8.63
2023-02-02T09:14:14.064Z,8.64
2023-02-02T09:16:41.172Z,8.62
2023-02-02T09:19:08.204Z,8.61
2023-02-02T09:21:37.888Z,8.60
2023-02-02T09:24:13.096Z,8.61
2023-02-02T09:26:40.673Z,8.62
2023-02-02T09:29:11.099Z,8.62
2023-02-02T09:31:38.597Z,8.64
2023-02-02T09:34:08.633Z,8.66
2023-02-02T09:36:35.812Z,8.69
2023-02-02T09:39:03.362Z,8.72
2023-02-02T09:41:42.172Z,8.74
2023-02-02T09:44:21.454Z,8.77
2023-02-02T09:47:32.356Z,8.81
2023-02-02T09:50:17.911Z,8.84
2023-02-02T09:52:53.484Z,8.87
2023-02-02T09:55:38.477Z,8.89
2023-02-02T09:58:23.439Z,8.90
2023-02-02T10:01:30.309Z,8.91
2023-02-02T10:04:06.643Z,8.92
2023-02-02T10:06:44.669Z,8.95
2023-02-02T10:09:50.794Z,8.96
2023-02-02T10:12:47.742Z,8.97
2023-02-02T10:15:20.615Z,8.99
2023-02-02T10:18:04.251Z,9.02
2023-02-02T10:21:02.055Z,9.02
2023-02-02T10:23:33.109Z,9.04
2023-02-02T10:26:21.490Z,9.03
2023-02-02T10:29:48.366Z,9.04
2023-02-02T10:32:49.225Z,9.02
2023-02-02T10:35:37.679Z,9.03
2023-02-02T10:38:31.089Z,9.07
2023-02-02T10:41:25.401Z,9.12
2023-02-02T10:43:58.529Z,9.15
2023-02-02T10:46:30.480Z,9.16
2023-02-02T10:49:28.778Z,9.16
2023-02-02T10:52:04.674Z,9.19
2023-02-02T10:54:57.687Z,9.21
2023-02-02T10:57:34.116Z,9.23
2023-02-02T11:00:25.108Z,9.23
2023-02-02T11:02:53.474Z,9.24
2023-02-02T11:05:44.130Z,9.26
2023-02-02T11:08:16.161Z,9.27
2023-02-02T11:10:45.248Z,9.31
2023-02-02T11:13:17.371Z,9.34
2023-02-02T11:15:44.047Z,9.34
2023-02-02T11:18:27.242Z,9.38
2023-02-02T11:20:53.933Z,9.41
2023-02-02T11:23:21.295Z,9.43
2023-02-02T11:25:59.024Z,9.46
2023-02-02T11:28:30.365Z,9.47
2023-02-02T11:30:57.387Z,9.50
2023-02-02T11:33:28.803Z,9.54
2023-02-02T11:35:59.590Z,9.57
2023-02-02T11:38:27.557Z,9.61
2023-02-02T11:40:57.880Z,9.64
2023-02-02T11:43:32.907Z,9.66
2023-02-02T11:46:06.226Z,9.70
2023-02-02T11:48:37.628Z,9.72
2023-02-02T11:51:06.139Z,9.74
2023-02-02T11:53:34.216Z,9.75
2023-02-02T11:56:05.780Z,9.77
2023-02-02T11:58:43.359Z,9.79
2023-02-02T12:01:22.469Z,9.80
2023-02-02T12:03:49.522Z,9.81
2023-02-02T12:06:20.554Z,9.83
2023-02-02T12:08:47.980Z,9.83
2023-02-02T12:11:29.644Z,9.86
2023-02-02T12:14:19.460Z,9.88
2023-02-02T12:17:06.418Z,9.87
2023-02-02T12:19:56.166Z,9.86
2023-02-02T12:22:31.789Z,9.86
2023-02-02T12:25:21.382Z,9.86
2023-02-02T12:28:45.344Z,9.89
2023-02-02T12:31:34.389Z,9.90
2023-02-02T12:34:15.899Z,9.87
2023-02-02T12:37:22.782Z,9.80
2023-02-02T12:40:04.567Z,9.70
2023-02-02T12:42:33.959Z,9.65
2023-02-02T12:45:19.206Z,9.65
2023-02-02T12:48:24.432Z,9.65
2023-02-02T12:51:03.212Z,9.67
2023-02-02T12:54:33.697Z,9.69
2023-02-02T12:56:57.572Z,9.71
2023-02-02T13:00:05.818Z,9.79
2023-02-02T13:03:04.937Z,9.84
2023-02-02T13:08:52.532Z,10.00
2023-02-02T13:11:42.279Z,10.04
2023-02-02T13:14:14.721Z,10.07
2023-02-02T13:16:48.563Z,10.07
2023-02-02T13:19:28.748Z,10.07
2023-02-02T13:21:59.423Z,10.06
2023-02-02T13:24:33.423Z,10.01
2023-02-02T13:27:06.247Z,9.99
2023-02-02T13:29:43.590Z,10.01
2023-02-02T13:32:22.741Z,10.07
2023-02-02T13:34:58.994Z,10.15
2023-02-02T13:37:43.017Z,10.25
2023-02-02T13:40:25.529Z,10.32
2023-02-02T13:42:52.158Z,10.33
2023-02-02T13:45:40.248Z,10.35
2023-02-02T13:48:19.760Z,10.33
2023-02-02T13:51:15.884Z,10.29
2023-02-02T13:54:07.636Z,10.23
2023-02-02T13:56:50.096Z,10.15
2023-02-02T13:59:37.719Z,10.07
2023-02-02T14:02:07.474Z,9.99
2023-02-02T14:04:34.329Z,9.91
2023-02-02T14:07:06.401Z,9.89
2023-02-02T14:09:37.117Z,9.82
2023-02-02T14:12:08.211Z,9.77
2023-02-02T14:14:38.199Z,9.75
2023-02-02T14:17:04.885Z,9.74
2023-02-02T14:19:42.107Z,9.73
2023-02-02T14:22:08.885Z,9.69
2023-02-02T14:24:35.447Z,9.69
2023-02-02T14:27:22.978Z,9.67
2023-02-02T14:29:49.537Z,9.66
2023-02-02T14:32:25.671Z,9.67
2023-02-02T14:35:13.806Z,9.66
2023-02-02T14:37:52.746Z,9.67
2023-02-02T14:40:44.192Z,9.67
2023-02-02T14:43:49.735Z,9.68
2023-02-02T14:46:23.657Z,9.68
2023-02-02T14:48:53.499Z,9.63
2023-02-02T14:51:28.976Z,9.59
2023-02-02T14:54:05.705Z,9.50
2023-02-02T14:56:40.183Z,9.46
2023-02-02T14:59:12.524Z,9.43
2023-02-02T15:01:39.487Z,9.44
2023-02-02T15:04:24.079Z,9.45
2023-02-02T15:06:55.686Z,9.45
2023-02-02T15:09:29.204Z,9.46
2023-02-02T15:12:00.820Z,9.47
2023-02-02T15:14:52.876Z,9.47
2023-02-02T15:17:27.870Z,9.48
2023-02-02T15:20:06.488Z,9.50
2023-02-02T15:22:48.371Z,9.52
2023-02-02T15:25:21.195Z,9.54
2023-02-02T15:28:20.164Z,9.57
2023-02-02T15:30:53.501Z,9.60
2023-02-02T15:33:37.251Z,9.63
2023-02-02T15:36:10.581Z,9.67
2023-02-02T15:38:40.009Z,9.68
2023-02-02T15:41:34.597Z,9.70
2023-02-02T15:44:01.483Z,9.71
2023-02-02T15:46:35.748Z,9.73
2023-02-02T15:49:33.749Z,9.75
2023-02-02T15:52:10.385Z,9.74
2023-02-02T15:54:39.860Z,9.75
2023-02-02T15:57:31.820Z,9.73
2023-02-02T15:59:59.755Z,9.71
2023-02-02T16:02:42.240Z,9.70
2023-02-02T16:05:31.654Z,9.69
2023-02-02T16:08:05.576Z,9.68
2023-02-02T16:10:33.713Z,9.68
2023-02-02T16:13:00.376Z,9.68
2023-02-02T16:15:29.245Z,9.69
2023-02-02T16:17:58.772Z,9.70
2023-02-02T16:20:26.161Z,9.69
2023-02-02T16:22:55.933Z,9.68
2023-02-02T16:25:24.367Z,9.65
2023-02-02T16:27:53.034Z,9.64
2023-02-02T16:30:22.706Z,9.62
2023-02-02T16:32:49.400Z,9.62
2023-02-02T16:35:37.457Z,9.60
2023-02-02T16:38:31.040Z,9.59
2023-02-02T16:41:10.646Z,9.58
2023-02-02T16:43:39.670Z,9.57
2023-02-02T16:46:10.975Z,9.55
2023-02-02T16:48:44.942Z,9.54
2023-02-02T16:51:17.966Z,9.52
2023-02-02T16:53:48.511Z,9.52
2023-02-02T16:56:26.580Z,9.51
2023-02-02T16:58:58.080Z,9.50
2023-02-02T17:01:53.293Z,9.49
2023-02-02T17:04:26.015Z,9.48
2023-02-02T17:06:54.055Z,9.47
2023-02-02T17:09:35.611Z,9.41
2023-02-02T17:12:34.143Z,9.38
2023-02-02T17:15:22.766Z,9.36
2023-02-02T17:17:49.700Z,9.35
2023-02-02T17:20:19.326Z,9.34
2023-02-02T17:22:49.914Z,9.36
2023-02-02T17:25:29.452Z,9.38
2023-02-02T17:27:58.646Z,9.39
2023-02-02T17:30:26.475Z,9.40
2023-02-02T17:32:53.135Z,9.41
2023-02-02T17:35:23.642Z,9.42
2023-02-02T17:37:52.720Z,9.44
2023-02-02T17:40:21.914Z,9.44
2023-02-02T17:42:51.655Z,9.43
2023-02-02T17:45:23.300Z,9.41
2023-02-02T17:47:51.311Z,9.36
2023-02-02T17:50:18.540Z,9.28
2023-02-02T17:52:46.244Z,9.22
2023-02-02T17:55:18.048Z,9.16
2023-02-02T17:57:46.906Z,9.11
2023-02-02T18:00:14.677Z,9.09
2023-02-02T18:02:41.422Z,9.08
2023-02-02T18:05:08.844Z,9.08
2023-02-02T18:07:35.587Z,9.08
2023-02-02T18:10:02.671Z,9.07
2023-02-02T18:12:29.334Z,9.07
2023-02-02T18:14:56.395Z,9.06
2023-02-02T18:17:22.994Z,9.08
2023-02-02T18:19:51.261Z,9.08
2023-02-02T18:22:20.319Z,9.09
2023-02-02T18:24:47.006Z,9.14
2023-02-02T18:27:14.025Z,9.18
2023-02-02T18:29:40.662Z,9.21
2023-02-02T18:32:07.954Z,9.23
2023-02-02T18:34:35.969Z,9.26
2023-02-02T18:37:03.270Z,9.29
2023-02-02T18:39:30.748Z,9.32
2023-02-02T18:41:58.179Z,9.35
2023-02-02T18:44:24.979Z,9.36
2023-02-02T18:46:52.373Z,9.34
2023-02-02T18:49:19.868Z,9.32
2023-02-02T18:51:47.965Z,9.28
2023-02-02T18:54:15.063Z,9.25
2023-02-02T18:56:41.709Z,9.22
2023-02-02T18:59:08.691Z,9.19
2023-02-02T19:01:35.426Z,9.17
2023-02-02T19:04:02.155Z,9.15
2023-02-02T19:06:47.640Z,9.11
2023-02-02T19:09:17.144Z,9.07
2023-02-02T19:11:47.315Z,9.00
2023-02-02T19:14:31.972Z,8.94
2023-02-02T19:17:14.614Z,8.91
2023-02-02T19:19:42.987Z,8.89
2023-02-02T19:22:31.383Z,8.89
2023-02-02T19:24:59.052Z,8.90
2023-02-02T19:27:29.081Z,8.91
2023-02-02T19:29:59.919Z,8.91
2023-02-02T19:32:31.221Z,8.90
2023-02-02T19:35:03.238Z,8.92
2023-02-02T19:37:32.707Z,8.94
2023-02-02T19:40:13.489Z,8.96
2023-02-02T19:42:49.552Z,8.98
2023-02-02T19:45:22.992Z,8.96
2023-02-02T19:47:51.467Z,8.95
2023-02-02T19:50:24.272Z,8.94
2023-02-02T19:52:51.917Z,8.92
2023-02-02T19:55:37.076Z,8.92
2023-02-02T19:58:34.195Z,8.93
2023-02-02T20:01:08.412Z,8.93
2023-02-02T20:03:43.240Z,8.92
2023-02-02T20:06:23.993Z,8.91
2023-02-02T20:08:50.729Z,8.90
2023-02-02T20:11:23.506Z,8.91
2023-02-02T20:13:51.696Z,8.94
2023-02-02T20:16:20.105Z,9.00
2023-02-02T20:18:53.234Z,9.04
2023-02-02T20:21:42.183Z,9.08
2023-02-02T20:24:18.224Z,9.12
2023-02-02T20:26:45.921Z,9.12
2023-02-02T20:29:22.513Z,9.15
2023-02-02T20:31:53.065Z,9.16
2023-02-02T20:34:32.973Z,9.17
2023-02-02T20:37:05.816Z,9.19
2023-02-02T20:39:40.919Z,9.19
2023-02-02T20:42:07.769Z,9.21
2023-02-02T20:44:35.370Z,9.22
2023-02-02T20:47:03.240Z,9.23
2023-02-02T20:49:31.783Z,9.24
2023-02-02T20:52:01.855Z,9.26
2023-02-02T20:54:28.950Z,9.28
2023-02-02T20:56:55.656Z,9.29
2023-02-02T20:59:22.320Z,9.31
2023-02-02T21:01:53.026Z,9.33
2023-02-02T21:04:21.010Z,9.34
2023-02-02T21:06:49.358Z,9.34
2023-02-02T21:09:17.191Z,9.32
2023-02-02T21:11:44.313Z,9.30
2023-02-02T21:14:11.050Z,9.28
2023-02-02T21:16:37.845Z,9.27
2023-02-02T21:19:04.808Z,9.27
2023-02-02T21:21:31.488Z,9.25
2023-02-02T21:23:58.521Z,9.23
2023-02-02T21:26:30.395Z,9.25
2023-02-02T21:28:58.918Z,9.27
2023-02-02T21:31:26.243Z,9.27
2023-02-02T21:33:53.862Z,9.28
2023-02-02T21:36:32.869Z,9.25
2023-02-02T21:39:06.070Z,9.24
2023-02-02T21:41:33.541Z,9.24
2023-02-02T21:44:00.244Z,9.21
2023-02-02T21:46:33.556Z,9.19
2023-02-02T21:49:01.207Z,9.17
2023-02-02T21:51:34.057Z,9.19
2023-02-02T21:54:27.417Z,9.18
2023-02-02T21:56:54.902Z,9.18
2023-02-02T21:59:23.883Z,9.19
2023-02-02T22:01:53.246Z,9.20
2023-02-02T22:04:29.446Z,9.22
2023-02-02T22:07:01.208Z,9.22
2023-02-02T22:09:38.381Z,9.24
2023-02-02T22:12:32.278Z,9.25
2023-02-02T22:15:01.209Z,9.23
2023-02-02T22:17:41.852Z,9.24
2023-02-02T22:20:15.062Z,9.23
2023-02-02T22:22:47.438Z,9.24
2023-02-02T22:25:17.225Z,9.26
2023-02-02T22:27:58.381Z,9.27
2023-02-02T22:30:40.996Z,9.28
2023-02-02T22:33:10.185Z,9.28
2023-02-02T22:35:37.202Z,9.29
2023-02-02T22:38:04.861Z,9.30
2023-02-02T22:40:33.353Z,9.30
2023-02-02T22:43:02.172Z,9.33
2023-02-02T22:45:28.922Z,9.35
2023-02-02T22:47:55.613Z,9.37
2023-02-02T22:50:25.655Z,9.38
2023-02-02T22:52:52.862Z,9.40
2023-02-02T22:55:20.283Z,9.42
2023-02-02T22:57:47.382Z,9.44
2023-02-02T23:00:18.149Z,9.46
2023-02-02T23:02:44.835Z,9.45
2023-02-02T23:05:13.406Z,9.46
2023-02-02T23:07:40.425Z,9.47
2023-02-02T23:10:08.098Z,9.49
2023-02-02T23:12:34.932Z,9.48
2023-02-02T23:15:01.602Z,9.50
2023-02-02T23:17:28.221Z,9.50
2023-02-02T23:19:54.895Z,9.52
2023-02-02T23:22:21.619Z,9.55
2023-02-02T23:24:48.608Z,9.55
2023-02-02T23:27:15.280Z,9.55
2023-02-02T23:29:42.089Z,9.56
2023-02-02T23:32:08.755Z,9.56
2023-02-02T23:34:35.367Z,9.57
2023-02-02T23:37:02.049Z,9.58
2023-02-02T23:39:28.676Z,9.58
2023-02-02T23:41:55.385Z,9.58
2023-02-02T23:44:22.027Z,9.59
2023-02-02T23:46:49.378Z,9.58
2023-02-02T23:49:17.049Z,9.58
2023-02-02T23:51:43.740Z,9.57
2023-02-02T23:54:12.895Z,9.58
2023-02-02T23:56:41.843Z,9.57
2023-02-02T23:59:09.311Z,9.58
